Time;durP1;ratioP1;P1;durP2;ratioP2;P2;SDS_P1;SDS_P2;PMS_P1;PMS_P2;Temp;Humidity;BMP_temperature;BMP_pressure;BME280_temperature;BME280_humidity;BME280_pressure;Samples;Min_cycle;Max_cycle;Signal;HPM_P1;HPM_P2
2023/04/17 00:00:25;;;;;;;1.63;0.87;;;13.70;86.00;;;11.93;61.42;99783.84;10382478;27;98333;-88
2023/04/17 00:05:30;;;;;;;1.70;0.60;;;13.70;85.90;;;11.98;61.06;99783.28;10400001;28;97240;-86
2023/04/17 00:10:33;;;;;;;4.70;1.07;;;13.70;85.80;;;12.02;61.02;99785.38;10391367;27;98164;-86
2023/04/17 00:15:36;;;;;;;2.10;0.97;;;13.70;85.60;;;12.07;60.82;99781.34;10378234;28;96759;-87
2023/04/17 00:20:40;;;;;;;4.87;0.80;;;13.80;85.60;;;12.08;61.28;99772.34;10383390;28;96549;-86
2023/04/17 00:25:43;;;;;;;2.97;1.20;;;13.80;85.70;;;12.10;61.04;99775.63;10383026;28;96647;-87
2023/04/17 00:30:46;;;;;;;1.47;1.10;;;13.80;85.60;;;12.11;60.63;99766.63;10413920;27;97597;-86
2023/04/17 00:35:49;;;;;;;2.37;1.13;;;13.80;85.30;;;12.15;60.66;99754.59;10389728;27;98448;-86
2023/04/17 00:40:52;;;;;;;2.93;0.90;;;13.80;85.40;;;12.14;60.22;99767.09;10405546;27;96396;-86
2023/04/17 00:45:56;;;;;;;2.10;1.10;;;13.90;85.20;;;12.15;60.11;99754.59;10422389;28;96568;-86
2023/04/17 00:51:02;;;;;;;1.20;0.80;;;13.90;84.80;;;12.18;60.20;99767.53;10389622;27;99628;-89
2023/04/17 00:56:05;;;;;;;1.57;0.90;;;13.90;84.80;;;12.16;60.20;99750.91;10404418;27;97477;-87
2023/04/17 01:01:08;;;;;;;1.80;1.00;;;13.90;84.80;;;12.18;59.60;99751.56;10388970;27;96638;-86
2023/04/17 01:06:12;;;;;;;1.47;1.00;;;13.90;84.50;;;12.17;59.26;99750.72;10386789;27;96749;-85
2023/04/17 01:11:15;;;;;;;1.27;0.67;;;13.90;84.20;;;12.22;59.32;99758.13;10403166;28;96615;-86
2023/04/17 01:16:19;;;;;;;2.47;1.17;;;13.90;84.10;;;12.21;59.38;99761.81;10400894;27;97339;-86
2023/04/17 01:21:22;;;;;;;1.63;0.70;;;13.90;84.10;;;12.20;59.92;99765.50;10398642;27;96653;-87
2023/04/17 01:26:29;;;;;;;1.90;1.00;;;13.90;84.20;;;12.10;59.92;99757.81;10388184;28;96503;-87
2023/04/17 01:31:33;;;;;;;2.27;0.90;;;13.80;84.20;;;12.01;60.42;99757.13;10404638;28;96688;-86
2023/04/17 01:36:36;;;;;;;1.97;1.00;;;13.80;84.60;;;11.89;61.74;99763.94;10403790;28;96671;-87
2023/04/17 01:41:39;;;;;;;2.87;1.23;;;13.70;85.10;;;11.72;62.86;99757.13;10384907;27;96609;-86
2023/04/17 01:46:42;;;;;;;1.93;0.83;;;13.50;85.70;;;11.64;62.23;99758.06;10404777;27;97107;-86
2023/04/17 01:51:45;;;;;;;1.97;1.00;;;13.40;85.90;;;11.64;62.46;99759.91;10405362;27;96512;-87
2023/04/17 01:56:48;;;;;;;1.60;0.90;;;13.40;86.10;;;11.56;63.19;99760.00;10403657;27;96547;-87
2023/04/17 02:01:52;;;;;;;1.10;0.77;;;13.40;86.50;;;11.51;63.16;99768.53;10385599;27;96535;-86
2023/04/17 02:06:55;;;;;;;1.93;1.10;;;13.30;86.70;;;11.44;63.65;99768.44;10389812;27;96698;-86
2023/04/17 02:11:58;;;;;;;1.83;0.90;;;13.20;87.00;;;11.39;64.21;99773.47;10403029;28;96704;-86
2023/04/17 02:17:01;;;;;;;3.03;1.30;;;13.20;87.20;;;11.28;65.24;99759.84;10400259;27;97936;-86
2023/04/17 02:22:04;;;;;;;1.90;1.00;;;13.10;87.70;;;11.19;65.12;99765.22;10385067;28;96518;-87
2023/04/17 02:27:07;;;;;;;1.23;0.80;;;13.00;88.10;;;11.15;65.41;99765.75;10384565;27;97821;-87
2023/04/17 02:32:10;;;;;;;1.53;0.90;;;12.90;88.30;;;11.13;66.10;99765.13;10396667;27;97437;-87
2023/04/17 02:37:13;;;;;;;2.87;0.87;;;12.90;88.50;;;11.06;66.17;99766.88;10402569;27;96440;-87
2023/04/17 02:42:16;;;;;;;3.50;1.00;;;12.80;88.60;;;11.04;65.41;99768.91;10401758;28;96669;-86
2023/04/17 02:47:19;;;;;;;2.43;0.93;;;12.80;88.70;;;11.04;65.03;99768.91;10384924;27;96687;-86
2023/04/17 02:52:22;;;;;;;1.70;0.90;;;12.80;88.60;;;11.07;64.30;99768.53;10401337;28;96690;-86
2023/04/17 02:57:26;;;;;;;1.60;1.03;;;12.80;88.20;;;11.13;63.29;99765.97;10398449;27;96575;-85
2023/04/17 03:02:29;;;;;;;0.90;0.80;;;12.90;87.80;;;11.19;63.51;99772.38;10403939;27;97950;-86
2023/04/17 03:07:32;;;;;;;1.53;1.00;;;12.90;87.60;;;11.19;63.58;99767.06;10406091;27;98176;-85
2023/04/17 03:12:36;;;;;;;1.57;0.90;;;13.00;87.60;;;11.23;63.36;99771.03;10400701;28;97009;-87
2023/04/17 03:17:39;;;;;;;1.73;1.00;;;13.00;87.50;;;11.23;63.26;99773.69;10389627;27;97744;-87
2023/04/17 03:22:42;;;;;;;2.60;1.10;;;13.00;87.30;;;11.23;63.01;99779.00;10399073;27;96512;-87
2023/04/17 03:27:45;;;;;;;7.73;1.70;;;13.00;87.40;;;11.21;63.69;99776.50;10384691;28;96684;-87
2023/04/17 03:32:49;;;;;;;1.40;1.00;;;13.00;87.60;;;11.20;64.36;99774.03;10416514;27;98908;-87
2023/04/17 03:37:52;;;;;;;2.73;1.30;;;13.00;87.70;;;11.20;63.54;99768.72;10399943;27;98380;-87
2023/04/17 03:42:55;;;;;;;2.37;1.33;;;13.00;87.50;;;11.19;63.57;99778.53;10399138;28;97254;-87
2023/04/17 03:47:58;;;;;;;3.00;1.60;;;13.00;87.50;;;11.21;63.71;99775.69;10399087;27;96611;-87
2023/04/17 03:53:01;;;;;;;5.40;2.03;;;12.90;87.40;;;11.20;63.25;99774.03;10385006;28;98200;-88
2023/04/17 03:58:04;;;;;;;3.00;1.97;;;13.00;87.20;;;11.20;63.33;99779.34;10399519;27;97024;-87
2023/04/17 04:03:07;;;;;;;1.97;1.43;;;13.00;87.10;;;11.21;63.07;99775.69;10413341;27;96545;-86
2023/04/17 04:08:10;;;;;;;1.90;1.20;;;13.00;87.00;;;11.24;61.72;99780.66;10390684;27;97084;-86
2023/04/17 04:13:13;;;;;;;2.53;1.33;;;13.00;86.60;;;11.27;62.07;99788.25;10393824;27;97420;-85
2023/04/17 04:18:16;;;;;;;2.37;1.13;;;13.00;86.40;;;11.33;61.12;99789.34;10406150;27;97569;-86
2023/04/17 04:23:19;;;;;;;2.50;1.53;;;13.10;86.00;;;11.40;61.76;99788.47;10395698;27;96633;-86
2023/04/17 04:28:23;;;;;;;3.60;1.57;;;13.20;86.00;;;11.48;61.37;99795.53;10407178;27;96565;-86
2023/04/17 04:33:26;;;;;;;5.50;1.47;;;13.20;86.30;;;11.51;61.54;99792.47;10387217;27;98551;-78
2023/04/17 04:38:29;;;;;;;2.27;1.40;;;13.30;85.80;;;11.57;61.51;99791.75;10389169;27;96802;-79
2023/04/17 04:43:33;;;;;;;3.37;1.40;;;13.30;85.80;;;11.65;60.30;99799.66;10405154;27;96818;-78
2023/04/17 04:48:36;;;;;;;2.87;1.70;;;13.40;85.20;;;11.78;60.43;99806.97;10405905;27;96591;-79
2023/04/17 04:53:40;;;;;;;2.50;1.30;;;13.50;85.30;;;11.87;60.80;99816.53;10405159;27;98707;-79
2023/04/17 04:58:43;;;;;;;2.30;1.60;;;13.60;85.30;;;11.94;61.07;99813.97;10422104;27;96642;-79
2023/04/17 05:03:46;;;;;;;3.10;1.70;;;13.70;85.40;;;12.05;60.94;99824.13;10403149;28;97898;-78
2023/04/17 05:08:50;;;;;;;3.20;1.80;;;13.70;85.20;;;12.15;60.86;99814.00;10387517;27;96695;-79
2023/04/17 05:13:53;;;;;;;3.57;1.60;;;13.80;85.10;;;12.28;58.72;99824.00;10422617;27;97735;-79
2023/04/17 05:18:57;;;;;;;3.00;1.80;;;14.00;84.10;;;12.40;58.62;99830.47;10401518;27;98549;-79
2023/04/17 05:24:00;;;;;;;4.57;1.90;;;14.10;84.00;;;12.51;58.92;99832.66;10394729;28;98626;-79
2023/04/17 05:29:03;;;;;;;4.27;1.50;;;14.20;84.00;;;12.65;59.20;99838.09;10398174;28;98442;-79
2023/04/17 05:34:07;;;;;;;3.73;1.80;;;14.30;84.30;;;12.77;60.24;99836.59;10383007;28;98112;-79
2023/04/17 05:39:10;;;;;;;4.33;2.10;;;14.50;84.50;;;12.86;57.98;99846.13;10398787;28;96921;-79
2023/04/17 05:44:13;;;;;;;6.27;2.67;;;14.60;83.80;;;12.94;58.54;99842.50;10384179;27;97499;-80
2023/04/17 05:49:16;;;;;;;4.93;1.80;;;14.60;83.80;;;12.95;58.56;99844.13;10399426;27;97075;-79
2023/04/17 05:54:19;;;;;;;2.50;1.83;;;14.70;83.70;;;12.98;57.70;99849.91;10369243;27;97530;-82
2023/04/17 05:59:22;;;;;;;2.20;1.67;;;14.70;83.00;;;12.99;57.60;99850.75;10404339;28;96498;-77
2023/04/17 06:04:25;;;;;;;3.30;1.47;;;14.70;82.60;;;13.05;58.80;99847.31;10376965;28;98285;-78
2023/04/17 06:09:29;;;;;;;3.43;1.77;;;14.70;82.90;;;13.13;58.63;99849.81;10403327;28;98226;-79
2023/04/17 06:14:32;;;;;;;4.47;1.60;;;14.70;82.90;;;13.23;59.00;99857.53;10387349;28;97491;-78
2023/04/17 06:19:35;;;;;;;2.57;1.43;;;14.80;83.20;;;13.30;57.99;99850.41;10386547;27;97353;-77
2023/04/17 06:24:38;;;;;;;2.67;1.77;;;14.90;82.90;;;13.43;56.65;99866.50;10404708;27;96820;-83
2023/04/17 06:29:40;;;;;;;3.10;2.05;;;15.00;82.40;;;13.54;57.45;99879.31;10393997;27;96825;-83
2023/04/17 06:34:44;;;;;;;2.67;1.73;;;15.10;82.30;;;13.56;55.99;99879.16;10422100;27;97813;-81
2023/04/17 06:40:01;;;;;;;2.58;1.67;;;15.10;81.40;;;13.64;57.18;99884.34;10387463;27;96820;-81
2023/04/17 06:45:05;;;;;;;3.92;1.70;;;15.20;81.90;;;13.69;56.28;99889.09;10400451;27;97387;-82
2023/04/17 06:50:09;;;;;;;2.42;1.70;;;15.30;81.60;;;13.81;56.48;99890.19;10349811;27;98767;-82
2023/04/17 06:55:12;;;;;;;3.78;1.88;;;15.30;81.60;;;13.96;55.33;99884.72;10391115;27;96740;-81
2023/04/17 07:00:16;;;;;;;3.97;1.58;;;15.50;80.80;;;14.31;54.64;99888.19;10384788;27;96532;-81
2023/04/17 07:05:19;;;;;;;2.40;1.40;;;15.70;80.30;;;14.64;53.34;99881.13;10379901;28;98430;-79
2023/04/17 07:10:22;;;;;;;4.45;1.98;;;16.10;79.30;;;14.96;52.72;99886.75;10357139;28;96752;-83
2023/04/17 07:15:29;;;;;;;2.97;1.60;;;16.40;78.40;;;15.14;51.64;99884.28;10396798;27;96693;-78
2023/04/17 07:20:32;;;;;;;3.15;1.88;;;16.60;77.10;;;15.22;50.69;99885.94;10381394;27;96880;-78
2023/04/17 07:25:35;;;;;;;2.67;1.70;;;16.70;75.60;;;15.45;50.44;99883.66;10397588;28;96626;-80
2023/04/17 07:30:38;;;;;;;2.03;1.55;;;16.90;75.80;;;15.63;50.79;99887.59;10400274;28;96757;-80
2023/04/17 07:35:42;;;;;;;3.13;1.70;;;17.10;75.80;;;16.13;49.06;99888.69;10400592;28;96587;-79
2023/04/17 07:40:45;;;;;;;1.95;1.20;;;17.30;74.90;;;16.73;49.58;99891.16;10400460;28;97537;-79
2023/04/17 07:45:48;;;;;;;5.03;1.70;;;17.80;75.30;;;17.50;45.78;99887.28;10419320;28;96509;-80
2023/04/17 07:50:52;;;;;;;2.65;1.52;;;18.40;72.60;;;17.98;44.66;99900.06;10401025;28;96458;-80
2023/04/17 07:55:57;;;;;;;3.08;1.67;;;18.60;72.30;;;17.79;45.39;99893.03;10382579;28;97480;-79
2023/04/17 08:01:04;;;;;;;2.63;1.70;;;18.60;71.60;;;17.54;46.38;99898.41;10365070;28;96832;-80
2023/04/17 08:06:07;;;;;;;3.28;1.95;;;18.50;71.50;;;17.40;47.18;99900.41;10398155;28;98654;-79
2023/04/17 08:11:10;;;;;;;4.03;1.60;;;18.40;71.80;;;17.33;46.83;99900.47;10418032;28;96507;-79
2023/04/17 08:16:13;;;;;;;3.08;2.10;;;18.50;72.00;;;17.13;46.35;99889.84;10367013;28;96641;-79
2023/04/17 08:21:16;;;;;;;2.40;1.65;;;18.40;71.30;;;16.94;48.76;99898.88;10382263;28;96428;-79
2023/04/17 08:26:19;;;;;;;2.83;1.80;;;18.30;72.50;;;16.81;49.36;99901.63;10401083;28;96514;-79
2023/04/17 08:31:22;;;;;;;4.72;2.10;;;18.20;73.00;;;16.83;49.05;99891.50;10416515;28;96514;-79
2023/04/17 08:36:26;;;;;;;3.22;1.90;;;18.20;73.30;;;16.88;48.92;99891.69;10396271;28;96493;-79
2023/04/17 08:41:38;;;;;;;3.20;1.95;;;18.40;72.50;;;16.99;48.25;99890.16;10400010;28;96625;-80
2023/04/17 08:46:41;;;;;;;3.00;2.00;;;18.50;72.40;;;17.16;48.78;99879.72;10383209;28;96621;-80
2023/04/17 08:51:46;;;;;;;2.60;1.55;;;18.60;72.40;;;17.33;48.50;99884.34;10381173;27;96578;-79
2023/04/17 08:56:49;;;;;;;2.63;1.80;;;18.80;71.90;;;17.36;48.96;99883.88;10406575;28;98254;-79
2023/04/17 09:02:03;;;;;;;4.40;1.80;;;18.80;72.50;;;17.40;49.26;99884.28;10423901;28;96496;-80
2023/04/17 09:07:10;;;;;;;2.45;1.48;;;18.80;72.30;;;17.53;48.81;99880.66;10389818;28;96880;-79
2023/04/17 09:12:13;;;;;;;2.85;1.90;;;18.90;72.70;;;18.44;48.29;99882.56;10390149;28;96679;-81
2023/04/17 09:17:19;;;;;;;3.40;1.70;;;19.50;73.40;;;19.20;45.11;99867.63;10369917;27;96512;-79
2023/04/17 09:22:22;;;;;;;2.72;1.80;;;20.20;70.30;;;19.28;44.56;99875.34;10421775;27;97346;-79
2023/04/17 09:27:26;;;;;;;3.42;1.73;;;20.40;69.60;;;19.17;45.19;99874.28;10404153;28;96712;-80
2023/04/17 09:32:31;;;;;;;4.07;1.85;;;20.50;69.10;;;18.72;45.09;99871.25;10398097;27;98578;-79
2023/04/17 09:37:50;;;;;;;2.17;1.60;;;20.30;68.00;;;19.33;45.58;99878.16;10387183;28;96803;-80
2023/04/17 09:42:59;;;;;;;3.17;2.10;;;20.60;69.30;;;19.62;43.59;99864.88;10398393;27;98810;-80
2023/04/17 09:48:11;;;;;;;2.63;2.17;;;20.90;67.90;;;20.26;42.19;99860.28;10411581;27;96607;-79
2023/04/17 09:53:17;;;;;;;2.35;1.60;;;21.50;67.10;;;21.29;39.62;99863.78;10403728;28;96585;-79
2023/04/17 09:58:21;;;;;;;2.78;1.77;;;22.30;65.70;;;22.02;40.72;99851.06;10382165;27;96802;-79
2023/04/17 10:03:25;;;;;;;3.08;1.98;;;22.80;64.10;;;22.37;38.18;99848.81;10402100;27;98562;-79
2023/04/17 10:08:28;;;;;;;2.65;1.90;;;23.20;62.80;;;21.99;39.07;99841.53;10376472;28;96442;-80
2023/04/17 10:13:37;;;;;;;5.25;3.00;;;23.00;61.10;;;21.32;38.47;99839.00;10386307;28;96671;-80
2023/04/17 10:18:40;;;;;;;2.70;1.98;;;22.60;60.40;;;20.47;41.31;99856.13;10385764;27;98721;-80
2023/04/17 10:23:44;;;;;;;2.17;1.58;;;22.00;60.90;;;20.48;41.79;99850.50;10404465;28;97427;-80
2023/04/17 10:28:48;;;;;;;3.60;1.63;;;22.00;62.20;;;20.97;40.19;99831.91;10385787;28;96527;-79
2023/04/17 10:33:53;;;;;;;3.55;1.85;;;22.40;61.80;;;21.33;40.74;99837.91;10366276;28;96611;-80
2023/04/17 10:39:15;;;;;;;2.65;1.48;;;22.50;61.90;;;21.78;39.18;99832.38;10386884;28;96603;-80
2023/04/17 10:44:18;;;;;;;2.17;1.50;;;22.80;61.20;;;21.75;39.20;99829.31;10387785;28;96523;-81
2023/04/17 10:49:21;;;;;;;2.72;1.80;;;23.00;60.50;;;21.30;38.82;99816.81;10401750;28;96506;-81
2023/04/17 10:54:24;;;;;;;3.47;1.95;;;22.80;59.30;;;20.32;40.28;99830.44;10403488;28;96817;-80
2023/04/17 10:59:28;;;;;;;4.13;1.83;;;22.20;59.00;;;20.13;41.24;99825.47;10385400;28;96502;-80
2023/04/17 11:04:34;;;;;;;3.47;1.90;;;21.80;60.50;;;19.71;42.24;99825.69;10385835;28;96684;-81
2023/04/17 11:09:38;;;;;;;3.00;2.08;;;21.40;61.30;;;19.38;43.00;99827.09;10409404;28;96521;-80
2023/04/17 11:14:42;;;;;;;3.67;1.83;;;21.20;61.50;;;19.16;43.25;99834.13;10371223;28;96727;-83
2023/04/17 11:19:46;;;;;;;2.75;1.77;;;20.90;62.10;;;19.13;45.11;99824.63;10380145;28;98727;-80
2023/04/17 11:24:50;;;;;;;4.97;2.42;;;20.80;63.50;;;19.17;43.54;99836.56;10418433;28;96541;-80
2023/04/17 11:29:53;;;;;;;3.25;2.33;;;21.00;62.20;;;19.08;44.00;99832.59;10400732;28;98460;-80
2023/04/17 11:34:56;;;;;;;4.97;2.28;;;20.90;62.50;;;19.29;44.48;99828.50;10401690;28;96642;-81
2023/04/17 11:40:09;;;;;;;2.25;1.77;;;21.00;63.30;;;19.76;43.30;99823.09;10400534;28;98356;-81
2023/04/17 11:45:12;;;;;;;2.78;1.60;;;21.50;62.80;;;20.24;41.01;99813.84;10367483;28;96625;-81
2023/04/17 11:50:15;;;;;;;2.40;1.50;;;22.10;60.30;;;20.56;41.82;99819.59;10418550;28;96542;-81
2023/04/17 11:55:18;;;;;;;2.13;1.48;;;22.50;59.90;;;20.56;40.92;99831.19;10383700;28;96522;-81
2023/04/17 12:00:26;;;;;;;1.40;1.10;;;22.40;59.50;;;20.55;41.46;99823.34;10401497;28;96507;-80
2023/04/17 12:05:30;;;;;;;3.75;1.38;;;22.40;59.50;;;20.77;39.99;99809.97;10401011;28;96559;-80
2023/04/17 12:10:39;;;;;;;1.80;1.40;;;22.60;58.80;;;21.06;39.14;99800.75;10385388;28;98346;-80
2023/04/17 12:15:42;;;;;;;1.50;1.25;;;23.00;58.50;;;21.14;38.72;99809.50;10383239;28;96809;-81
2023/04/17 12:20:47;;;;;;;3.20;1.30;;;23.10;57.60;;;20.96;39.06;99794.34;10399107;28;96893;-80
2023/04/17 12:25:50;;;;;;;1.88;1.35;;;22.80;57.40;;;20.32;39.74;99799.94;10385128;28;96471;-81
2023/04/17 12:30:53;;;;;;;2.45;1.60;;;22.40;57.00;;;20.37;40.24;99797.34;10390004;28;96489;-80
2023/04/17 12:35:56;;;;;;;2.22;1.75;;;22.20;58.50;;;20.11;40.22;99797.94;10390735;28;96569;-80
2023/04/17 12:40:59;;;;;;;4.05;2.03;;;22.00;57.90;;;20.02;41.12;99789.38;10423420;28;96599;-80
2023/04/17 12:46:03;;;;;;;3.70;2.10;;;21.80;58.90;;;19.88;40.69;99778.06;10390858;28;96737;-80
2023/04/17 12:51:10;;;;;;;2.75;1.83;;;21.80;58.70;;;20.79;41.09;99772.75;10406505;28;98312;-79
2023/04/17 12:56:13;;;;;;;3.38;1.85;;;22.80;59.30;;;21.68;37.80;99764.63;10382374;28;96443;-81
2023/04/17 13:01:17;;;;;;;2.60;1.90;;;24.00;57.00;;;21.90;37.44;99768.13;10366190;28;96543;-81
2023/04/17 13:06:20;;;;;;;31.92;7.50;;;24.20;55.20;;;22.56;38.39;99749.09;10405269;28;96496;-80
2023/04/17 13:11:23;;;;;;;3.80;2.13;;;24.80;56.00;;;23.55;34.23;99739.47;10402721;27;96610;-80
2023/04/17 13:16:26;;;;;;;1.90;1.55;;;26.00;53.50;;;23.94;33.95;99737.22;10401270;27;97314;-81
2023/04/17 13:21:29;;;;;;;3.00;1.85;;;26.40;52.30;;;23.39;33.42;99735.03;10400809;27;96739;-84
2023/04/17 13:26:34;;;;;;;4.15;2.63;;;25.80;51.00;;;21.56;40.16;99764.72;10403209;28;96742;-83
2023/04/17 13:31:38;;;;;;;5.70;3.28;;;24.10;55.20;;;19.48;47.20;99767.22;10363961;28;96616;-81
2023/04/17 13:36:43;;;;;;;6.70;2.90;;;22.20;61.40;;;18.25;51.59;99773.38;10392467;27;96622;-82
2023/04/17 13:41:47;;;;;;;5.05;2.40;;;20.50;66.20;;;17.53;54.96;99786.63;10390864;27;98459;-81
2023/04/17 13:46:50;;;;;;;4.65;2.83;;;19.50;69.90;;;17.17;56.04;99793.59;10406228;28;96592;-82
2023/04/17 13:51:54;;;;;;;4.53;3.10;;;18.90;71.70;;;16.90;57.40;99792.97;10391994;27;98894;-82
2023/04/17 13:56:57;;;;;;;3.85;2.67;;;18.60;73.20;;;16.77;57.13;99799.28;10401335;27;96557;-81
2023/04/17 14:02:02;;;;;;;3.53;2.72;;;18.40;73.60;;;16.60;57.70;99788.22;10403054;27;96597;-81
2023/04/17 14:07:07;;;;;;;4.32;2.63;;;18.20;74.10;;;16.55;58.14;99795.25;10400267;27;96736;-81
2023/04/17 14:12:09;;;;;;;4.88;3.03;;;18.00;74.60;;;16.72;57.98;99796.41;10384190;27;97307;-81
2023/04/17 14:17:13;;;;;;;4.82;3.05;;;18.10;74.90;;;16.89;58.59;99785.16;10401050;28;96705;-81
2023/04/17 14:22:16;;;;;;;4.85;2.75;;;18.30;75.70;;;16.95;58.32;99785.09;10376928;27;97362;-81
2023/04/17 14:27:19;;;;;;;4.80;3.08;;;18.40;75.70;;;16.88;57.46;99787.03;10404052;28;98312;-81
2023/04/17 14:32:22;;;;;;;5.85;2.88;;;18.40;76.10;;;16.95;58.12;99784.28;10386920;28;98588;-81
2023/04/17 14:37:26;;;;;;;3.88;2.53;;;18.40;76.10;;;16.93;55.33;99778.31;10385600;28;97307;-82
2023/04/17 14:42:29;;;;;;;3.70;2.78;;;18.40;74.80;;;16.81;55.34;99776.34;10379836;27;96849;-81
2023/04/17 14:47:38;;;;;;;3.45;2.60;;;18.40;74.10;;;16.78;54.92;99779.44;10388816;27;98459;-82
2023/04/17 14:52:41;;;;;;;5.18;2.30;;;18.30;73.90;;;16.65;55.03;99779.53;10419055;27;97277;-82
2023/04/17 14:57:43;;;;;;;3.95;2.60;;;18.20;73.90;;;16.64;54.92;99777.88;10411065;28;97774;-82
2023/04/17 15:02:47;;;;;;;7.93;4.03;;;18.10;73.90;;;16.65;54.93;99778.69;10392437;27;96762;-82
2023/04/17 15:07:52;;;;;;;19.27;9.80;;;18.20;73.90;;;16.67;54.74;99777.44;10418220;27;96797;-82
2023/04/17 15:12:59;;;;;;;18.15;8.90;;;18.10;73.90;;;16.69;55.22;99772.69;10391771;28;96468;-82
2023/04/17 15:18:02;;;;;;;7.97;4.32;;;18.20;74.20;;;16.64;54.98;99777.06;10373863;28;96633;-82
2023/04/17 15:23:05;;;;;;;5.43;3.53;;;18.10;74.10;;;16.71;54.75;99767.94;10401975;28;97324;-82
2023/04/17 15:28:08;;;;;;;3.50;2.30;;;18.20;74.10;;;16.75;54.62;99774.53;10386523;27;98190;-80
2023/04/17 15:33:12;;;;;;;4.55;2.63;;;18.20;73.70;;;16.68;54.73;99780.97;10410626;27;98598;-80
2023/04/17 15:38:15;;;;;;;5.30;2.67;;;18.20;73.60;;;16.70;54.21;99777.03;10397366;27;97396;-79
2023/04/17 15:43:20;;;;;;;4.15;3.10;;;18.20;73.50;;;16.65;54.90;99781.38;10399660;27;96607;-79
2023/04/17 15:48:22;;;;;;;5.63;2.65;;;18.20;73.60;;;16.64;55.25;99777.06;10382035;27;96689;-80
2023/04/17 15:53:25;;;;;;;11.38;7.15;;;18.20;73.90;;;16.49;54.98;99782.72;10397984;27;98668;-79
2023/04/17 15:58:28;;;;;;;9.95;6.85;;;18.00;73.80;;;16.46;56.36;99772.44;10383294;27;97450;-81
2023/04/17 16:03:32;;;;;;;7.53;4.47;;;18.00;74.50;;;16.43;56.20;99778.22;10397901;27;96572;-79
2023/04/17 16:08:36;;;;;;;5.38;3.67;;;17.90;74.60;;;16.33;56.09;99776.84;10397157;27;97423;-78
2023/04/17 16:13:39;;;;;;;7.57;4.40;;;17.90;74.80;;;16.22;56.44;99772.16;10409575;27;97929;-79
2023/04/17 16:18:45;;;;;;;6.15;3.50;;;17.80;75.20;;;16.17;57.30;99781.88;10393406;28;96675;-79
2023/04/17 16:23:48;;;;;;;5.25;3.20;;;17.70;75.50;;;16.10;57.70;99781.94;10404875;27;98859;-78
2023/04/17 16:28:51;;;;;;;7.90;4.28;;;17.60;75.90;;;16.03;57.94;99776.59;10406895;28;96536;-79
2023/04/17 16:33:54;;;;;;;6.60;4.03;;;17.60;76.50;;;16.01;58.65;99789.41;10386071;27;97649;-79
2023/04/17 16:38:58;;;;;;;6.28;3.92;;;17.50;76.70;;;15.92;58.31;99776.44;10404206;27;96683;-79
2023/04/17 16:44:00;;;;;;;5.05;3.58;;;17.40;76.90;;;15.82;57.81;99789.47;10407131;27;98314;-78
2023/04/17 16:49:08;;;;;;;4.53;3.15;;;17.30;76.90;;;15.70;58.04;99784.75;10394190;27;98353;-78
2023/04/17 16:54:12;;;;;;;6.47;3.30;;;17.20;77.10;;;15.58;58.21;99793.63;10421346;27;98669;-78
2023/04/17 16:59:15;;;;;;;5.07;3.60;;;17.10;77.20;;;15.51;58.99;99796.31;10388392;28;96643;-79
2023/04/17 17:04:18;;;;;;;7.35;4.60;;;17.00;77.60;;;15.43;59.35;99796.56;10391829;28;97125;-79
2023/04/17 17:09:21;;;;;;;9.50;5.70;;;16.90;77.90;;;15.30;59.90;99794.72;10418789;27;98233;-79
2023/04/17 17:14:24;;;;;;;6.13;3.15;;;16.80;78.30;;;15.19;60.03;99796.19;10401387;27;97340;-79
2023/04/17 17:19:27;;;;;;;4.38;3.00;;;16.70;78.40;;;15.06;60.37;99803.41;10385871;27;97101;-79
2023/04/17 17:24:31;;;;;;;4.10;3.13;;;16.60;78.60;;;14.91;60.80;99795.56;10418003;27;97626;-78
2023/04/17 17:29:34;;;;;;;5.55;3.00;;;16.50;79.00;;;14.76;60.99;99801.13;10399752;27;98273;-79
2023/04/17 17:34:37;;;;;;;4.88;2.83;;;16.30;79.30;;;14.60;62.03;99802.34;10393839;27;98851;-79
2023/04/17 17:39:40;;;;;;;3.88;2.60;;;16.10;79.60;;;14.42;62.54;99802.06;10385710;27;97441;-79
2023/04/17 17:44:44;;;;;;;12.32;6.10;;;16.00;80.00;;;14.24;63.33;99804.50;10404797;28;96570;-79
2023/04/17 17:49:48;;;;;;;16.60;8.50;;;15.80;80.40;;;14.02;63.73;99796.59;10402940;27;97545;-79
2023/04/17 17:54:51;;;;;;;27.17;13.77;;;15.60;81.20;;;13.90;64.53;99811.53;10403296;27;96675;-79
2023/04/17 17:59:54;;;;;;;22.65;12.63;;;15.50;81.50;;;13.78;65.14;99813.13;10404848;27;97431;-92
2023/04/17 18:04:57;;;;;;;17.07;9.43;;;15.30;81.90;;;13.69;65.92;99825.84;10365318;28;96637;-87
2023/04/17 18:10:00;;;;;;;15.27;9.10;;;15.20;82.90;;;13.65;66.43;99841.41;10378429;27;96865;-85
2023/04/17 18:15:05;;;;;;;11.77;7.07;;;15.20;83.40;;;13.61;66.97;99837.50;10397699;28;97736;-89
2023/04/17 18:20:08;;;;;;;13.93;7.27;;;15.20;83.70;;;13.62;66.99;99844.50;10370973;28;96527;-89
2023/04/17 18:25:13;;;;;;;11.75;6.68;;;15.20;84.10;;;13.58;67.34;99840.56;10373358;28;96497;-87
2023/04/17 18:30:17;;;;;;;16.67;8.48;;;15.10;84.40;;;13.58;67.72;99851.22;10406894;28;96578;-90
2023/04/17 18:35:20;;;;;;;15.03;8.70;;;15.10;85.10;;;13.57;67.76;99856.78;10407014;28;96575;-88
2023/04/17 18:40:23;;;;;;;10.73;5.88;;;15.10;85.60;;;13.60;67.60;99856.38;10400917;28;96862;-89
2023/04/17 18:45:26;;;;;;;6.67;3.60;;;15.10;85.70;;;13.61;67.58;99856.19;10386073;27;96588;-92
2023/04/17 18:50:31;;;;;;;5.87;3.57;;;15.10;85.60;;;13.59;67.25;99852.88;10406700;28;96568;-91
2023/04/17 18:55:38;;;;;;;5.80;2.90;;;15.20;85.70;;;13.66;67.10;99863.59;10379609;28;96530;-86
2023/04/17 19:00:41;;;;;;;7.10;3.70;;;15.20;85.80;;;13.61;67.63;99850.00;10399693;27;96518;-87
2023/04/17 19:05:45;;;;;;;4.07;2.90;;;15.20;86.00;;;13.58;67.87;99858.41;10403524;28;98427;-91
2023/04/17 19:10:48;;;;;;;4.75;2.90;;;15.10;86.20;;;13.52;67.35;99852.00;10387187;28;96582;-90
2023/04/17 19:15:51;;;;;;;4.25;2.58;;;15.10;86.60;;;13.53;67.37;99863.50;10412144;28;96495;-89
2023/04/17 19:20:55;;;;;;;5.05;2.35;;;15.10;86.70;;;13.59;67.39;99868.91;10388734;28;96687;-92
2023/04/17 19:25:58;;;;;;;3.40;2.25;;;15.10;86.90;;;13.60;67.39;99859.84;10359926;28;96501;-90
2023/04/17 19:31:05;;;;;;;4.05;1.98;;;15.10;87.00;;;13.65;66.80;99868.09;10391307;27;97088;-89
2023/04/17 19:36:08;;;;;;;2.83;2.00;;;15.10;87.00;;;13.69;67.10;99862.41;10384188;27;98312;-89
2023/04/17 19:41:18;;;;;;;3.47;1.42;;;15.20;87.20;;;13.71;66.61;99863.00;10394661;28;96366;-88
2023/04/17 19:46:23;;;;;;;3.10;1.80;;;15.20;87.00;;;13.75;66.11;99866.94;10401606;28;96913;-90
2023/04/17 19:51:26;;;;;;;4.03;2.35;;;15.20;86.90;;;13.75;66.36;99867.78;10383764;27;97858;-91
2023/04/17 19:56:29;;;;;;;4.60;2.50;;;15.30;87.10;;;13.72;66.26;99857.47;10400427;28;97396;-91
2023/04/17 20:01:34;;;;;;;3.80;2.00;;;15.20;87.10;;;13.73;66.09;99861.78;10392362;28;96609;-86
2023/04/17 20:06:38;;;;;;;3.17;2.45;;;15.20;87.30;;;13.70;66.31;99858.69;10397007;28;96619;-89
2023/04/17 20:11:41;;;;;;;4.30;3.00;;;15.20;87.40;;;13.68;66.36;99860.75;10400763;28;96618;-89
2023/04/17 20:16:45;;;;;;;3.53;2.28;;;15.20;87.60;;;13.65;66.79;99857.44;10386336;27;98432;-83
2023/04/17 20:21:48;;;;;;;3.67;1.85;;;15.20;87.90;;;13.62;66.90;99863.19;10415957;27;96991;-83
2023/04/17 20:26:52;;;;;;;2.90;2.03;;;15.10;88.20;;;13.59;67.64;99860.06;10376004;27;96922;-83
2023/04/17 20:31:54;;;;;;;2.85;1.63;;;15.10;88.60;;;13.54;68.32;99875.84;10416549;27;97580;-83
2023/04/17 20:36:57;;;;;;;2.30;1.50;;;15.00;89.40;;;13.41;69.89;99870.41;10402411;27;96594;-84
2023/04/17 20:42:00;;;;;;;2.92;1.65;;;14.90;90.50;;;13.35;70.92;99877.34;10381193;27;98304;-83
2023/04/17 20:47:04;;;;;;;2.40;1.50;;;14.80;91.00;;;13.29;71.40;99873.59;10406186;27;96598;-81
2023/04/17 20:52:07;;;;;;;2.33;1.80;;;14.80;91.30;;;13.22;71.90;99883.41;10397522;28;98531;-84
2023/04/17 20:57:10;;;;;;;3.67;2.20;;;14.70;91.80;;;13.19;72.36;99888.25;10400459;27;97591;-85
2023/04/17 21:02:14;;;;;;;2.87;2.20;;;14.60;92.00;;;13.17;72.58;99893.78;10404603;27;96649;-85